Skip Navigation Links Skip Navigation Links

Current Weather

Alert, Nunavut

For information only: do not use for flight planning or navigation.
Latest weather
Observation time Saturday, September 22, 2018 11:00 AM EDT
Local time Saturday, September 22, 2018 11:58 AM EDT
Flight conditions Visual Meteorological Conditions
Winds
Wind speed calm
Visibility 15 mi.
Sky condition
Ceiling 6,500 ft. overcast
Cloud layer overcast 6,500 ft.
Temperature 14°F
Dewpoint 12°F
Altimeter 29.92 in.Hg
Derived measurements
Relative humidity 92%
Wind chill 14°F
Density altitude -3080 ft.
Sea-level pressure 29.93 in.Hg
METAR CYLT 221500Z 00000KT 15SM OVC065 M10/M11 A2992 RMK SC8 SLP135

Settings

Location code

InnerDrive.Weather 4.0.6770.0 Release CLR 4.0.30319.42000
Copyright ©2018 Inner Drive Technology. All rights reserved. Portions Copyright ©1986-2018 David Braverman.

Find weather

Site navigation


Skip Navigation Links

Place info

Page info

PayPal - The safer, easier way to pay online!

Return home.

Copyright ©2018 Inner Drive Technology. Purveyors of fine, hand-crafted computer software. Page printed 2018-09-22T15:58:23 UTC.